createdAt,value
2023-02-28T00:01:09.924Z,44.07
2023-02-28T00:03:37.695Z,44.10
2023-02-28T00:06:06.133Z,44.00
2023-02-28T00:08:35.496Z,44.03
2023-02-28T00:11:04.683Z,44.30
2023-02-28T00:13:33.054Z,43.70
2023-02-28T00:16:02.255Z,44.20
2023-02-28T00:18:31.571Z,44.20
2023-02-28T00:21:00.029Z,43.97
2023-02-28T00:23:28.444Z,43.60
2023-02-28T00:25:57.825Z,43.87
2023-02-28T00:28:26.047Z,43.90
2023-02-28T00:30:53.895Z,44.07
2023-02-28T00:33:22.758Z,43.77
2023-02-28T00:35:50.633Z,44.10
2023-02-28T00:38:18.803Z,44.10
2023-02-28T00:40:46.582Z,44.07
2023-02-28T00:43:15.683Z,43.80
2023-02-28T00:45:46.374Z,43.83
2023-02-28T00:48:14.207Z,43.70
2023-02-28T00:50:41.998Z,43.97
2023-02-28T00:53:10.025Z,44.10
2023-02-28T00:55:37.763Z,44.20
2023-02-28T00:58:05.988Z,44.07
2023-02-28T01:00:35.099Z,43.80
2023-02-28T01:03:02.869Z,44.07
2023-02-28T01:05:30.621Z,43.67
2023-02-28T01:07:58.409Z,44.10
2023-02-28T01:10:27.673Z,43.90
2023-02-28T01:12:55.419Z,43.90
2023-02-28T01:15:23.255Z,44.00
2023-02-28T01:17:52.493Z,44.00
2023-02-28T01:20:20.456Z,43.73
2023-02-28T01:22:48.522Z,43.97
2023-02-28T01:25:16.571Z,43.73
2023-02-28T01:27:44.359Z,44.13
2023-02-28T01:30:13.064Z,43.60
2023-02-28T01:32:40.800Z,43.80
2023-02-28T01:35:10.588Z,43.70
2023-02-28T01:37:39.530Z,43.80
2023-02-28T01:40:08.579Z,44.10
2023-02-28T01:42:36.355Z,43.90
2023-02-28T01:45:16.642Z,43.70
2023-02-28T01:47:45.552Z,43.90
2023-02-28T01:50:18.599Z,44.00
2023-02-28T01:52:48.489Z,43.60
2023-02-28T01:55:18.487Z,44.00
2023-02-28T01:57:50.249Z,43.70
2023-02-28T02:00:21.518Z,43.63
2023-02-28T02:02:52.884Z,43.67
2023-02-28T02:05:24.125Z,43.80
2023-02-28T02:07:54.305Z,43.33
2023-02-28T02:10:25.256Z,43.67
2023-02-28T02:13:14.780Z,43.90
2023-02-28T02:15:51.155Z,43.70
2023-02-28T02:18:31.331Z,43.60
2023-02-28T02:21:47.917Z,43.57
2023-02-28T02:24:51.523Z,43.57
2023-02-28T02:27:28.141Z,43.50
2023-02-28T02:30:41.930Z,43.47
2023-02-28T02:33:51.104Z,43.47
2023-02-28T02:36:25.055Z,43.77
2023-02-28T02:39:00.137Z,43.63
2023-02-28T02:41:33.550Z,43.70
2023-02-28T02:44:07.464Z,43.70
2023-02-28T02:46:39.156Z,43.47
2023-02-28T02:49:11.220Z,43.53
2023-02-28T02:51:42.402Z,43.60
2023-02-28T02:54:16.682Z,43.47
2023-02-28T02:56:47.221Z,43.50
2023-02-28T02:59:21.931Z,43.70
2023-02-28T03:01:53.176Z,43.53
2023-02-28T03:04:23.638Z,43.47
2023-02-28T03:06:55.639Z,43.57
2023-02-28T03:09:23.874Z,43.70
2023-02-28T03:11:53.827Z,43.60
2023-02-28T03:14:29.768Z,43.27
2023-02-28T03:17:24.177Z,43.60
2023-02-28T03:20:05.129Z,43.40
2023-02-28T03:23:05.840Z,43.77
2023-02-28T03:25:41.788Z,43.60
2023-02-28T03:28:16.543Z,43.40
2023-02-28T03:30:52.392Z,43.60
2023-02-28T03:33:24.066Z,43.60
2023-02-28T03:35:56.295Z,43.53
2023-02-28T03:38:31.880Z,43.73
2023-02-28T03:41:05.318Z,43.27
2023-02-28T03:43:38.794Z,43.43
2023-02-28T03:46:11.212Z,43.50
2023-02-28T03:48:45.039Z,43.60
2023-02-28T03:51:18.099Z,43.40
2023-02-28T03:53:52.303Z,43.63
2023-02-28T03:56:23.765Z,43.70
2023-02-28T03:58:57.428Z,43.43
2023-02-28T04:01:30.306Z,43.70
2023-02-28T04:03:58.285Z,43.43
2023-02-28T04:06:26.574Z,43.60
2023-02-28T04:08:55.728Z,43.73
2023-02-28T04:11:30.004Z,43.87
2023-02-28T04:13:58.007Z,43.43
2023-02-28T04:16:35.005Z,43.30
2023-02-28T04:19:05.733Z,43.37
2023-02-28T04:21:34.918Z,43.60
2023-02-28T04:24:05.122Z,43.47
2023-02-28T04:26:33.114Z,43.30
2023-02-28T04:29:01.762Z,43.40
2023-02-28T04:31:29.896Z,43.10
2023-02-28T04:33:58.406Z,43.50
2023-02-28T04:36:26.391Z,43.07
2023-02-28T04:38:54.472Z,43.40
2023-02-28T04:41:24.144Z,43.67
2023-02-28T04:43:53.503Z,43.60
2023-02-28T04:46:21.784Z,43.47
2023-02-28T04:48:49.962Z,44.00
2023-02-28T04:51:19.848Z,43.93
2023-02-28T04:53:48.316Z,43.53
2023-02-28T04:56:18.133Z,43.77
2023-02-28T04:58:47.502Z,43.87
2023-02-28T05:01:20.948Z,43.90
2023-02-28T05:03:49.469Z,43.57
2023-02-28T05:06:18.584Z,43.97
2023-02-28T05:08:46.502Z,43.80
2023-02-28T05:11:20.157Z,43.67
2023-02-28T05:13:49.902Z,43.87
2023-02-28T05:16:17.878Z,43.90
2023-02-28T05:18:45.803Z,44.10
2023-02-28T05:21:27.856Z,43.80
2023-02-28T05:23:56.966Z,43.90
2023-02-28T05:26:25.201Z,43.70
2023-02-28T05:28:54.459Z,44.20
2023-02-28T05:31:22.548Z,44.20
2023-02-28T05:33:50.565Z,44.13
2023-02-28T05:36:18.359Z,44.17
2023-02-28T05:38:48.956Z,44.20
2023-02-28T05:41:17.069Z,44.37
2023-02-28T05:43:44.941Z,44.00
2023-02-28T05:46:14.568Z,44.20
2023-02-28T05:48:43.706Z,44.07
2023-02-28T05:51:11.534Z,44.33
2023-02-28T05:53:39.370Z,44.33
2023-02-28T05:56:07.534Z,44.57
2023-02-28T05:58:35.707Z,44.20
2023-02-28T06:01:24.304Z,44.20
2023-02-28T06:03:52.166Z,44.30
2023-02-28T06:06:20.106Z,44.10
2023-02-28T06:08:48.029Z,44.30
2023-02-28T06:11:15.859Z,44.60
2023-02-28T06:13:43.706Z,44.40
2023-02-28T06:16:13.125Z,44.50
2023-02-28T06:18:42.310Z,44.20
2023-02-28T06:21:10.333Z,44.10
2023-02-28T06:23:38.319Z,44.43
2023-02-28T06:26:06.559Z,44.47
2023-02-28T06:28:34.383Z,44.17
2023-02-28T06:31:07.078Z,44.10
2023-02-28T06:33:35.157Z,44.20
2023-02-28T06:36:04.661Z,44.43
2023-02-28T06:38:32.654Z,44.20
2023-02-28T06:41:01.741Z,44.07
2023-02-28T06:43:31.264Z,44.40
2023-02-28T06:46:00.244Z,44.10
2023-02-28T06:48:28.899Z,44.43
2023-02-28T06:51:05.866Z,44.47
2023-02-28T06:53:34.127Z,44.37
2023-02-28T06:56:06.468Z,44.47
2023-02-28T06:58:34.280Z,44.27
2023-02-28T07:01:02.732Z,44.43
2023-02-28T07:03:32.205Z,44.17
2023-02-28T07:06:01.898Z,44.03
2023-02-28T07:08:32.460Z,43.47
2023-02-28T07:11:00.362Z,43.00
2023-02-28T07:13:28.385Z,43.03
2023-02-28T07:15:57.187Z,42.70
2023-02-28T07:18:25.131Z,43.03
2023-02-28T07:20:53.241Z,42.83
2023-02-28T07:23:21.803Z,42.80
2023-02-28T07:25:51.198Z,42.57
2023-02-28T07:28:19.234Z,42.50
2023-02-28T07:30:47.229Z,42.43
2023-02-28T07:33:14.993Z,42.63
2023-02-28T07:35:42.971Z,42.60
2023-02-28T07:38:11.271Z,42.43
2023-02-28T07:40:39.351Z,42.80
2023-02-28T07:43:08.525Z,42.50
2023-02-28T07:45:36.446Z,42.10
2023-02-28T07:48:04.812Z,42.43
2023-02-28T07:50:32.954Z,42.47
2023-02-28T07:53:01.293Z,42.80
2023-02-28T07:55:29.197Z,42.97
2023-02-28T07:57:58.349Z,43.07
2023-02-28T08:00:27.762Z,43.40
2023-02-28T08:02:55.592Z,43.20
2023-02-28T08:05:23.385Z,43.60
2023-02-28T08:07:51.642Z,43.90
2023-02-28T08:10:19.631Z,43.87
2023-02-28T08:12:47.463Z,44.13
2023-02-28T08:15:15.288Z,44.03
2023-02-28T08:17:44.432Z,44.27
2023-02-28T08:20:13.433Z,44.67
2023-02-28T08:22:41.336Z,44.67
2023-02-28T08:25:10.716Z,44.80
2023-02-28T08:27:38.813Z,45.00
2023-02-28T08:30:08.007Z,45.23
2023-02-28T08:32:36.003Z,45.50
2023-02-28T08:35:05.787Z,45.30
2023-02-28T08:37:33.738Z,45.47
2023-02-28T08:40:01.535Z,45.50
2023-02-28T08:42:29.370Z,45.13
2023-02-28T08:44:57.440Z,45.37
2023-02-28T08:47:25.403Z,45.60
2023-02-28T08:49:53.992Z,45.50
2023-02-28T08:52:23.084Z,45.57
2023-02-28T08:54:51.092Z,45.60
2023-02-28T08:57:18.870Z,45.40
2023-02-28T08:59:46.724Z,45.70
2023-02-28T09:02:15.246Z,45.70
2023-02-28T09:04:46.217Z,45.73
2023-02-28T09:07:14.819Z,45.57
2023-02-28T09:09:54.683Z,45.90
2023-02-28T09:12:23.075Z,45.90
2023-02-28T09:14:50.897Z,45.50
2023-02-28T09:17:19.183Z,45.67
2023-02-28T09:19:47.442Z,45.77
2023-02-28T09:22:15.229Z,45.47
2023-02-28T09:24:45.615Z,45.87
2023-02-28T09:27:13.408Z,45.70
2023-02-28T09:29:41.220Z,45.57
2023-02-28T09:32:09.063Z,46.00
2023-02-28T09:34:37.958Z,45.80
2023-02-28T09:37:05.999Z,45.57
2023-02-28T09:39:33.930Z,45.30
2023-02-28T09:42:05.076Z,45.40
2023-02-28T09:44:38.359Z,45.40
2023-02-28T09:47:14.945Z,45.57
2023-02-28T09:49:47.067Z,45.73
2023-02-28T09:52:20.212Z,45.70
2023-02-28T09:54:48.271Z,45.43
2023-02-28T09:57:23.736Z,45.60
2023-02-28T10:00:03.184Z,45.63
2023-02-28T10:02:53.725Z,45.30
2023-02-28T10:05:24.996Z,45.50
2023-02-28T10:08:02.720Z,45.27
2023-02-28T10:10:36.796Z,45.30
2023-02-28T10:13:14.385Z,45.60
2023-02-28T10:15:43.193Z,45.60
2023-02-28T10:18:15.712Z,45.30
2023-02-28T10:20:44.825Z,45.60
2023-02-28T10:23:18.932Z,45.20
2023-02-28T10:25:51.934Z,45.30
2023-02-28T10:28:21.064Z,45.50
2023-02-28T10:30:50.637Z,44.90
2023-02-28T10:33:23.383Z,45.30
2023-02-28T10:35:51.447Z,45.30
2023-02-28T10:38:22.732Z,45.33
2023-02-28T10:40:50.994Z,45.50
2023-02-28T10:43:26.577Z,45.40
2023-02-28T10:46:01.162Z,45.40
2023-02-28T10:48:33.854Z,45.70
2023-02-28T10:51:03.311Z,45.70
2023-02-28T10:53:57.232Z,45.50
2023-02-28T10:56:26.941Z,45.40
2023-02-28T10:58:58.672Z,45.47
2023-02-28T11:01:36.653Z,45.30
2023-02-28T11:04:05.076Z,45.23
2023-02-28T11:06:35.356Z,45.70
2023-02-28T11:09:08.103Z,45.17
2023-02-28T11:11:45.593Z,45.23
2023-02-28T11:14:23.257Z,45.37
2023-02-28T11:16:52.299Z,45.53
2023-02-28T11:19:24.527Z,45.50
2023-02-28T11:21:56.689Z,45.30
2023-02-28T11:24:29.268Z,45.30
2023-02-28T11:26:57.630Z,45.30
2023-02-28T11:29:29.482Z,45.23
2023-02-28T11:32:08.347Z,45.50
2023-02-28T11:34:38.416Z,45.73
2023-02-28T11:37:11.503Z,45.63
2023-02-28T11:39:39.335Z,45.27
2023-02-28T11:42:20.313Z,44.90
2023-02-28T11:45:04.829Z,45.07
2023-02-28T11:47:39.985Z,45.23
2023-02-28T11:50:33.243Z,44.93
2023-02-28T11:53:03.507Z,44.93
2023-02-28T11:55:37.041Z,45.20
2023-02-28T11:58:21.536Z,44.80
2023-02-28T12:01:30.143Z,45.00
2023-02-28T12:04:15.220Z,45.17
2023-02-28T12:06:51.914Z,44.87
2023-02-28T12:09:43.032Z,44.63
2023-02-28T12:12:24.500Z,44.87
2023-02-28T12:15:16.767Z,44.53
2023-02-28T12:17:56.050Z,44.77
2023-02-28T12:20:32.656Z,44.73
2023-02-28T12:23:21.516Z,44.50
2023-02-28T12:25:56.672Z,44.57
2023-02-28T12:28:29.890Z,44.60
2023-02-28T12:31:03.081Z,44.53
2023-02-28T12:33:36.564Z,44.80
2023-02-28T12:36:11.197Z,44.70
2023-02-28T12:38:44.139Z,44.80
2023-02-28T12:41:15.466Z,44.70
2023-02-28T12:43:48.057Z,44.63
2023-02-28T12:46:21.901Z,44.47
2023-02-28T12:48:56.451Z,44.60
2023-02-28T12:51:25.883Z,44.47
2023-02-28T12:54:01.954Z,44.50
2023-02-28T12:56:40.750Z,44.47
2023-02-28T12:59:19.369Z,44.53
2023-02-28T13:02:15.117Z,44.37
2023-02-28T13:05:17.726Z,44.60
2023-02-28T13:08:22.384Z,44.47
2023-02-28T13:10:55.180Z,44.40
2023-02-28T13:13:25.399Z,44.50
2023-02-28T13:16:01.902Z,44.53
2023-02-28T13:18:32.800Z,44.47
2023-02-28T13:21:03.001Z,44.40
2023-02-28T13:23:41.565Z,44.10
2023-02-28T13:26:09.666Z,44.03
2023-02-28T13:29:24.192Z,44.27
2023-02-28T13:32:43.566Z,44.43
2023-02-28T13:35:37.201Z,44.07
2023-02-28T13:38:36.730Z,44.20
2023-02-28T13:41:42.856Z,44.30
2023-02-28T13:44:12.471Z,44.20
2023-02-28T13:47:10.080Z,44.60
2023-02-28T13:49:38.136Z,44.20
2023-02-28T13:52:17.754Z,44.40
2023-02-28T13:55:09.590Z,44.37
2023-02-28T13:57:51.260Z,44.50
2023-02-28T14:00:30.276Z,44.50
2023-02-28T14:03:14.616Z,44.50
2023-02-28T14:05:43.134Z,44.30
2023-02-28T14:08:17.941Z,44.30
2023-02-28T14:10:50.301Z,44.30
2023-02-28T14:13:44.980Z,44.40
2023-02-28T14:16:16.163Z,43.83
2023-02-28T14:18:51.991Z,43.90
2023-02-28T14:21:26.342Z,43.83
2023-02-28T14:24:25.305Z,43.60
2023-02-28T14:27:10.235Z,43.93
2023-02-28T14:30:07.991Z,43.77
2023-02-28T14:32:39.622Z,43.80
2023-02-28T14:35:21.278Z,43.97
2023-02-28T14:37:50.718Z,43.97
2023-02-28T14:40:24.186Z,44.00
2023-02-28T14:43:00.496Z,44.10
2023-02-28T14:45:31.882Z,44.20
2023-02-28T14:48:01.020Z,44.33
2023-02-28T14:50:32.317Z,44.37
2023-02-28T14:53:00.777Z,44.57
2023-02-28T14:55:31.573Z,44.43
2023-02-28T14:58:05.076Z,44.40
2023-02-28T15:00:35.106Z,44.40
2023-02-28T15:03:20.143Z,44.23
2023-02-28T15:05:54.513Z,44.33
2023-02-28T15:08:22.333Z,44.30
2023-02-28T15:10:55.822Z,44.13
2023-02-28T15:13:28.480Z,44.30
2023-02-28T15:16:03.878Z,44.13
2023-02-28T15:18:41.323Z,44.50
2023-02-28T15:21:13.110Z,44.60
2023-02-28T15:23:42.849Z,44.03
2023-02-28T15:26:14.728Z,44.47
2023-02-28T15:28:44.187Z,44.27
2023-02-28T15:31:23.697Z,44.43
2023-02-28T15:33:56.549Z,44.60
2023-02-28T15:36:28.722Z,44.60
2023-02-28T15:39:01.582Z,44.40
2023-02-28T15:41:40.272Z,44.17
2023-02-28T15:44:27.652Z,44.37
2023-02-28T15:46:59.423Z,44.23
2023-02-28T15:49:27.641Z,44.27
2023-02-28T15:51:59.594Z,44.37
2023-02-28T15:54:31.493Z,44.40
2023-02-28T15:57:03.668Z,44.43
2023-02-28T15:59:33.846Z,44.30
2023-02-28T16:02:14.944Z,44.40
2023-02-28T16:04:58.601Z,44.20
2023-02-28T16:07:26.802Z,44.50
2023-02-28T16:09:54.714Z,43.97
2023-02-28T16:12:26.655Z,44.20
2023-02-28T16:14:57.527Z,44.27
2023-02-28T16:17:28.170Z,44.50
2023-02-28T16:19:56.669Z,44.47
2023-02-28T16:22:24.837Z,44.40
2023-02-28T16:24:52.815Z,44.37
2023-02-28T16:27:25.378Z,44.20
2023-02-28T16:29:53.396Z,44.30
2023-02-28T16:32:22.622Z,44.30
2023-02-28T16:34:50.617Z,44.50
2023-02-28T16:37:19.840Z,44.10
2023-02-28T16:39:48.678Z,44.00
2023-02-28T16:42:23.507Z,44.40
2023-02-28T16:44:51.551Z,44.20
2023-02-28T16:47:19.374Z,44.17
2023-02-28T16:49:48.598Z,44.07
2023-02-28T16:52:17.067Z,44.20
2023-02-28T16:54:44.865Z,44.00
2023-02-28T16:57:22.135Z,44.10
2023-02-28T16:59:51.619Z,44.13
2023-02-28T17:02:21.289Z,44.13
2023-02-28T17:04:50.588Z,43.97
2023-02-28T17:07:18.661Z,43.87
2023-02-28T17:09:47.103Z,43.77
2023-02-28T17:12:15.362Z,43.60
2023-02-28T17:14:43.178Z,43.97
2023-02-28T17:17:17.545Z,43.60
2023-02-28T17:19:45.386Z,43.83
2023-02-28T17:22:14.652Z,44.03
2023-02-28T17:24:42.492Z,43.90
2023-02-28T17:27:13.400Z,43.80
2023-02-28T17:29:41.209Z,43.90
2023-02-28T17:32:17.976Z,43.57
2023-02-28T17:34:46.775Z,43.87
2023-02-28T17:37:16.187Z,43.93
2023-02-28T17:39:44.016Z,44.20
2023-02-28T17:42:11.859Z,44.10
2023-02-28T17:44:39.667Z,44.17
2023-02-28T17:47:07.680Z,44.03
2023-02-28T17:49:35.502Z,44.37
2023-02-28T17:52:03.338Z,44.20
2023-02-28T17:54:32.554Z,44.33
2023-02-28T17:57:00.323Z,44.63
2023-02-28T17:59:34.037Z,44.43
2023-02-28T18:02:02.109Z,44.40
2023-02-28T18:04:30.211Z,44.60
2023-02-28T18:07:00.893Z,44.47
2023-02-28T18:09:29.219Z,44.53
2023-02-28T18:11:58.560Z,44.47
2023-02-28T18:14:27.540Z,44.33
2023-02-28T18:16:57.405Z,44.50
2023-02-28T18:19:25.660Z,44.17
2023-02-28T18:21:54.919Z,44.10
2023-02-28T18:24:24.319Z,44.40
2023-02-28T18:26:52.364Z,44.27
2023-02-28T18:29:23.570Z,44.43
2023-02-28T18:31:52.261Z,44.30
2023-02-28T18:34:20.520Z,44.40
2023-02-28T18:36:48.524Z,44.23
2023-02-28T18:39:16.516Z,44.60
2023-02-28T18:41:44.666Z,44.37
2023-02-28T18:44:20.008Z,44.40
2023-02-28T18:46:50.372Z,44.57
2023-02-28T18:49:18.529Z,44.50
2023-02-28T18:51:46.669Z,44.33
2023-02-28T18:54:15.580Z,44.40
2023-02-28T18:56:44.087Z,44.70
2023-02-28T18:59:12.046Z,44.20
2023-02-28T19:01:40.851Z,44.50
2023-02-28T19:04:13.268Z,44.60
2023-02-28T19:06:41.994Z,44.50
2023-02-28T19:09:10.400Z,44.63
2023-02-28T19:11:38.244Z,44.33
2023-02-28T19:14:06.328Z,44.70
2023-02-28T19:16:34.339Z,44.30
2023-02-28T19:19:02.317Z,44.70
2023-02-28T19:21:31.517Z,44.47
2023-02-28T19:23:59.341Z,44.30
2023-02-28T19:26:28.143Z,44.47
2023-02-28T19:28:56.350Z,44.57
2023-02-28T19:31:26.858Z,44.37
2023-02-28T19:33:56.751Z,44.50
2023-02-28T19:36:25.898Z,44.63
2023-02-28T19:38:55.086Z,44.40
2023-02-28T19:41:25.287Z,44.30
2023-02-28T19:43:54.312Z,44.43
2023-02-28T19:46:22.100Z,44.60
2023-02-28T19:48:49.918Z,44.07
2023-02-28T19:53:50.567Z,44.17
2023-02-28T19:56:19.785Z,44.20
2023-02-28T19:58:47.641Z,44.00
2023-02-28T20:01:17.669Z,44.27
2023-02-28T20:03:49.296Z,44.43
2023-02-28T20:06:17.510Z,44.13
2023-02-28T20:08:45.463Z,44.50
2023-02-28T20:11:15.019Z,44.33
2023-02-28T20:13:44.701Z,44.17
2023-02-28T20:16:14.811Z,44.60
2023-02-28T20:18:44.099Z,44.60
2023-02-28T20:21:13.246Z,44.40
2023-02-28T20:23:43.069Z,44.37
2023-02-28T20:26:12.682Z,44.33
2023-02-28T20:28:40.818Z,44.40
2023-02-28T20:31:14.334Z,44.33
2023-02-28T20:33:43.469Z,44.50
2023-02-28T20:36:13.397Z,44.33
2023-02-28T20:38:41.672Z,44.03
2023-02-28T20:41:09.799Z,44.30
2023-02-28T20:43:37.657Z,44.37
2023-02-28T20:46:05.746Z,44.10
2023-02-28T20:48:36.345Z,44.20
2023-02-28T20:51:05.073Z,44.43
2023-02-28T20:53:34.583Z,44.30
2023-02-28T20:56:04.327Z,44.37
2023-02-28T20:58:33.964Z,44.17
2023-02-28T21:01:03.115Z,44.20
2023-02-28T21:03:31.153Z,44.10
2023-02-28T21:06:04.507Z,44.37
2023-02-28T21:08:32.348Z,44.40
2023-02-28T21:11:00.142Z,44.30
2023-02-28T21:13:28.048Z,44.37
2023-02-28T21:15:55.978Z,44.07
2023-02-28T21:18:23.867Z,44.20
2023-02-28T21:20:51.658Z,44.33
2023-02-28T21:23:21.017Z,44.13
2023-02-28T21:25:49.717Z,44.27
2023-02-28T21:28:17.479Z,44.40
2023-02-28T21:30:45.324Z,44.00
2023-02-28T21:33:13.164Z,44.20
2023-02-28T21:35:41.022Z,43.93
2023-02-28T21:38:08.796Z,44.07
2023-02-28T21:40:37.911Z,44.00
2023-02-28T21:43:05.670Z,43.73
2023-02-28T21:45:35.178Z,43.90
2023-02-28T21:48:02.955Z,43.80
2023-02-28T21:50:30.727Z,44.03
2023-02-28T21:52:58.499Z,44.03
2023-02-28T21:55:26.286Z,43.97
2023-02-28T21:57:55.371Z,43.90
2023-02-28T22:00:23.461Z,44.00
2023-02-28T22:02:51.256Z,44.07
2023-02-28T22:05:19.041Z,44.00
2023-02-28T22:07:46.807Z,44.20
2023-02-28T22:10:14.582Z,44.00
2023-02-28T22:12:42.357Z,44.20
2023-02-28T22:15:12.491Z,44.00
2023-02-28T22:17:40.367Z,43.80
2023-02-28T22:20:08.843Z,43.80
2023-02-28T22:22:36.617Z,44.00
2023-02-28T22:25:04.740Z,44.10
2023-02-28T22:27:32.536Z,44.00
2023-02-28T22:30:00.362Z,44.10
2023-02-28T22:32:29.512Z,44.27
2023-02-28T22:34:57.527Z,43.80
2023-02-28T22:37:25.339Z,43.97
2023-02-28T22:39:53.114Z,43.87
2023-02-28T22:42:21.359Z,43.93
2023-02-28T22:44:51.354Z,44.00
2023-02-28T22:47:19.809Z,44.07
2023-02-28T22:49:48.893Z,44.00
2023-02-28T22:52:16.677Z,43.97
2023-02-28T22:54:44.441Z,43.90
2023-02-28T22:57:12.505Z,43.90
2023-02-28T22:59:40.283Z,44.00
2023-02-28T23:02:08.076Z,43.67
2023-02-28T23:04:35.989Z,43.83
2023-02-28T23:07:05.192Z,43.90
2023-02-28T23:09:32.968Z,44.07
2023-02-28T23:12:00.769Z,43.83
2023-02-28T23:14:28.552Z,43.57
2023-02-28T23:16:56.551Z,43.90
2023-02-28T23:19:27.658Z,43.83
2023-02-28T23:21:55.600Z,43.93
2023-02-28T23:24:26.975Z,43.87
2023-02-28T23:26:56.991Z,43.57
2023-02-28T23:29:27.475Z,43.70
2023-02-28T23:31:56.173Z,43.90
2023-02-28T23:34:26.318Z,43.60
2023-02-28T23:36:55.345Z,44.13
2023-02-28T23:39:26.411Z,43.73
2023-02-28T23:41:54.523Z,43.87
2023-02-28T23:44:22.506Z,43.70
2023-02-28T23:46:52.560Z,43.63
2023-02-28T23:49:21.191Z,43.83
2023-02-28T23:51:49.843Z,43.43
2023-02-28T23:54:18.672Z,43.93
2023-02-28T23:56:47.912Z,43.60
2023-02-28T23:59:15.795Z,43.80
